Time;durP1;ratioP1;P1;durP2;ratioP2;P2;SDS_P1;SDS_P2;PMS_P1;PMS_P2;Temp;Humidity;BMP_temperature;BMP_pressure;BME280_temperature;BME280_humidity;BME280_pressure;Samples;Min_cycle;Max_cycle;Signal;HPM_P1;HPM_P2
2022/07/21 00:00:50;;;;;;;;;;;;;;;25.49;55.44;101717.63;7285263;19;152470;-61
2022/07/21 00:03:17;;;;;;;;;;;;;;;25.56;54.99;101718.03;7289967;19;153502;-61
2022/07/21 00:05:44;;;;;;;;;;;;;;;25.48;55.40;101712.31;7282543;19;152434;-62
2022/07/21 00:08:13;;;;;;;;;;;;;;;25.54;54.96;101708.19;7284289;19;153484;-61
2022/07/21 00:10:40;;;;;;;;;;;;;;;25.55;54.87;101713.53;7284376;19;153047;-62
2022/07/21 00:13:07;;;;;;;;;;;;;;;25.58;54.31;101707.22;7285236;19;152403;-61
2022/07/21 00:15:33;;;;;;;;;;;;;;;25.43;54.52;101713.28;7285824;19;152676;-62
2022/07/21 00:18:01;;;;;;;;;;;;;;;25.50;53.69;101718.47;7283688;19;152747;-62
2022/07/21 00:20:30;;;;;;;;;;;;;;;25.50;53.97;101722.13;7278103;19;152251;-62
2022/07/21 00:22:57;;;;;;;;;;;;;;;25.43;53.93;101721.75;7291129;19;153494;-62
2022/07/21 00:25:24;;;;;;;;;;;;;;;25.38;53.60;101713.41;7284849;19;151989;-62
2022/07/21 00:27:59;;;;;;;;;;;;;;;25.41;53.72;101714.75;7284432;19;154894;-62
2022/07/21 00:30:26;;;;;;;;;;;;;;;25.39;54.29;101717.06;7283650;19;154116;-62
2022/07/21 00:32:53;;;;;;;;;;;;;;;25.33;53.67;101721.19;7284922;19;152828;-62
2022/07/21 00:35:19;;;;;;;;;;;;;;;25.26;54.08;101717.97;7279250;19;152635;-62
2022/07/21 00:37:46;;;;;;;;;;;;;;;25.33;54.13;101718.34;7283099;19;153289;-62
2022/07/21 00:40:16;;;;;;;;;;;;;;;25.30;53.90;101716.19;7280578;19;152417;-62
2022/07/21 00:42:43;;;;;;;;;;;;;;;25.27;53.92;101720.47;7284803;19;153646;-61
2022/07/21 00:45:10;;;;;;;;;;;;;;;25.18;54.14;101720.41;7290760;19;154809;-61
2022/07/21 00:47:37;;;;;;;;;;;;;;;25.23;54.30;101717.47;7284391;19;152534;-62
2022/07/21 00:50:09;;;;;;;;;;;;;;;25.20;53.97;101720.09;7274799;19;154501;-61
2022/07/21 00:52:36;;;;;;;;;;;;;;;25.13;53.45;101714.03;7281891;19;153405;-62
2022/07/21 00:55:04;;;;;;;;;;;;;;;25.17;53.24;101718.72;7284735;19;153209;-61
2022/07/21 00:57:31;;;;;;;;;;;;;;;25.21;53.06;101719.75;7282191;19;153828;-60
2022/07/21 00:59:58;;;;;;;;;;;;;;;25.12;52.23;101716.03;7280703;19;152983;-62
2022/07/21 01:02:26;;;;;;;;;;;;;;;25.05;52.48;101718.47;7281059;19;153066;-62
2022/07/21 01:04:53;;;;;;;;;;;;;;;24.96;52.43;101717.56;7279219;19;153110;-62
2022/07/21 01:07:20;;;;;;;;;;;;;;;24.93;52.85;101721.06;7291619;19;152583;-62
2022/07/21 01:09:47;;;;;;;;;;;;;;;24.90;52.47;101720.84;7282009;19;153774;-62
2022/07/21 01:12:14;;;;;;;;;;;;;;;24.84;52.62;101725.75;7284894;19;152261;-61
2022/07/21 01:14:41;;;;;;;;;;;;;;;24.89;53.02;101722.84;7284470;19;152756;-61
2022/07/21 01:17:14;;;;;;;;;;;;;;;24.77;52.64;101725.34;7282306;19;154689;-61
2022/07/21 01:19:42;;;;;;;;;;;;;;;24.74;52.27;101726.84;7275694;19;152211;-59
2022/07/21 01:22:08;;;;;;;;;;;;;;;24.72;52.88;101725.47;7283076;19;152695;-62
2022/07/21 01:24:36;;;;;;;;;;;;;;;24.76;53.18;101718.03;7280051;19;152451;-61
2022/07/21 01:27:12;;;;;;;;;;;;;;;24.70;53.65;101727.78;7283729;19;152154;-61
2022/07/21 01:29:38;;;;;;;;;;;;;;;24.70;53.76;101725.81;7289060;19;152934;-61
2022/07/21 01:32:05;;;;;;;;;;;;;;;24.61;53.02;101718.41;7284091;19;152081;-60
2022/07/21 01:34:32;;;;;;;;;;;;;;;24.62;52.93;101725.72;7280379;19;152588;-61
2022/07/21 01:36:59;;;;;;;;;;;;;;;24.60;52.97;101714.72;7282083;19;153277;-61
2022/07/21 01:42:15;;;;;;;;;;;;;;;24.59;53.00;101730.00;7280634;19;152791;-61
2022/07/21 01:44:42;;;;;;;;;;;;;;;24.50;53.10;101723.44;7280725;19;154263;-62
2022/07/21 01:47:20;;;;;;;;;;;;;;;24.51;53.16;101724.28;7282949;19;154719;-61
2022/07/21 01:49:46;;;;;;;;;;;;;;;24.53;53.00;101724.81;7278523;19;152574;-62
2022/07/21 01:52:13;;;;;;;;;;;;;;;24.56;53.43;101726.97;7279428;19;153798;-61
2022/07/21 01:54:40;;;;;;;;;;;;;;;24.50;52.50;101734.72;7281435;19;153380;-61
2022/07/21 01:57:07;;;;;;;;;;;;;;;24.44;52.47;101721.84;7280476;19;154094;-61
2022/07/21 01:59:33;;;;;;;;;;;;;;;24.36;52.64;101714.97;7279726;19;154103;-61
2022/07/21 02:02:00;;;;;;;;;;;;;;;24.32;52.75;101716.75;7282328;19;152137;-61
2022/07/21 02:04:27;;;;;;;;;;;;;;;24.43;53.06;101713.72;7279555;19;153570;-60
2022/07/21 02:06:54;;;;;;;;;;;;;;;24.44;53.00;101707.72;7281525;19;152243;-60
2022/07/21 02:09:21;;;;;;;;;;;;;;;24.36;53.46;101709.31;7283082;19;153193;-60
2022/07/21 02:11:48;;;;;;;;;;;;;;;24.32;52.78;101710.28;7281023;19;153593;-62
2022/07/21 02:14:14;;;;;;;;;;;;;;;24.30;53.02;101707.75;7289804;19;153159;-61
2022/07/21 02:16:41;;;;;;;;;;;;;;;24.36;53.69;101714.97;7280285;19;153792;-62
2022/07/21 02:19:08;;;;;;;;;;;;;;;24.25;52.92;101707.91;7278021;19;153085;-61
2022/07/21 02:21:35;;;;;;;;;;;;;;;24.23;53.08;101712.16;7281275;19;152801;-62
2022/07/21 02:24:02;;;;;;;;;;;;;;;24.25;52.68;101715.53;7280052;19;152712;-62
2022/07/21 02:26:29;;;;;;;;;;;;;;;24.20;53.03;101721.28;7282815;19;152137;-62
2022/07/21 02:28:56;;;;;;;;;;;;;;;24.19;53.21;101722.44;7281923;19;152596;-61
2022/07/21 02:31:22;;;;;;;;;;;;;;;24.16;53.12;101721.09;7282893;19;154021;-61
2022/07/21 02:33:49;;;;;;;;;;;;;;;24.11;53.20;101732.44;7293026;19;152395;-60
2022/07/21 02:36:16;;;;;;;;;;;;;;;24.10;53.04;101725.13;7285387;19;154438;-61
2022/07/21 02:38:43;;;;;;;;;;;;;;;24.16;53.26;101728.72;7285259;19;152206;-61
2022/07/21 02:41:09;;;;;;;;;;;;;;;24.07;52.63;101733.38;7287044;19;153100;-60
2022/07/21 02:43:36;;;;;;;;;;;;;;;24.05;53.35;101730.88;7286824;19;153271;-61
2022/07/21 02:46:03;;;;;;;;;;;;;;;24.03;53.02;101721.06;7285907;19;152707;-61
2022/07/21 02:48:29;;;;;;;;;;;;;;;23.94;53.29;101729.38;7285625;19;152847;-61
2022/07/21 02:50:56;;;;;;;;;;;;;;;23.95;53.02;101728.25;7282339;19;154723;-60
2022/07/21 02:53:23;;;;;;;;;;;;;;;23.94;53.08;101732.22;7284724;19;153126;-61
2022/07/21 02:55:51;;;;;;;;;;;;;;;23.88;53.28;101727.84;7294048;19;152838;-60
2022/07/21 02:58:18;;;;;;;;;;;;;;;23.80;53.27;101729.38;7288970;19;152217;-62
2022/07/21 03:00:47;;;;;;;;;;;;;;;23.78;53.26;101725.19;7286603;19;152468;-60
2022/07/21 03:03:14;;;;;;;;;;;;;;;23.84;52.86;101735.25;7285652;19;153899;-60
2022/07/21 03:05:41;;;;;;;;;;;;;;;23.81;53.29;101728.22;7283802;19;152508;-61
2022/07/21 03:08:09;;;;;;;;;;;;;;;23.88;52.95;101736.31;7289069;19;153168;-60
2022/07/21 03:10:36;;;;;;;;;;;;;;;23.84;53.10;101723.97;7285838;19;154235;-60
2022/07/21 03:13:06;;;;;;;;;;;;;;;23.85;53.63;101726.44;7285745;19;152407;-62
2022/07/21 03:15:33;;;;;;;;;;;;;;;23.96;53.62;101729.09;7284614;19;153809;-62
2022/07/21 03:18:00;;;;;;;;;;;;;;;23.78;53.22;101725.19;7292456;19;154132;-61
2022/07/21 03:20:28;;;;;;;;;;;;;;;23.87;52.83;101735.47;7282540;19;153004;-61
2022/07/21 03:22:55;;;;;;;;;;;;;;;23.85;53.13;101731.25;7285844;19;153232;-62
2022/07/21 03:25:22;;;;;;;;;;;;;;;23.87;52.68;101741.09;7286434;19;153529;-61
2022/07/21 03:27:49;;;;;;;;;;;;;;;23.79;52.38;101739.00;7287083;19;153417;-60
2022/07/21 03:30:26;;;;;;;;;;;;;;;23.80;52.74;101739.84;7284721;19;153276;-60
2022/07/21 03:32:53;;;;;;;;;;;;;;;23.82;53.13;101746.84;7288060;19;152424;-61
2022/07/21 03:35:19;;;;;;;;;;;;;;;23.82;52.78;101744.03;7282190;19;152346;-62
2022/07/21 03:37:48;;;;;;;;;;;;;;;23.84;52.84;101746.53;7285696;19;153908;-62
2022/07/21 03:40:16;;;;;;;;;;;;;;;23.81;52.28;101756.44;7293385;19;152141;-61
2022/07/21 03:42:51;;;;;;;;;;;;;;;23.77;52.68;101757.38;7283805;19;153591;-62
2022/07/21 03:45:18;;;;;;;;;;;;;;;23.72;52.44;101755.50;7285551;19;152455;-62
2022/07/21 03:47:45;;;;;;;;;;;;;;;23.74;52.25;101761.69;7286555;19;152014;-62
2022/07/21 03:50:21;;;;;;;;;;;;;;;23.75;51.59;101759.69;7281173;19;154843;-61
2022/07/21 03:52:48;;;;;;;;;;;;;;;23.68;51.61;101767.72;7283156;19;152421;-61
2022/07/21 03:55:17;;;;;;;;;;;;;;;23.68;51.65;101767.72;7281780;19;153384;-62
2022/07/21 03:57:46;;;;;;;;;;;;;;;23.74;51.70;101770.16;7284862;19;152591;-62
2022/07/21 04:00:17;;;;;;;;;;;;;;;23.75;52.25;101769.00;7284868;19;152499;-61
2022/07/21 04:02:51;;;;;;;;;;;;;;;23.70;52.00;101774.75;7290453;19;151985;-62
2022/07/21 04:05:19;;;;;;;;;;;;;;;23.65;51.82;101776.81;7281727;19;154220;-62
2022/07/21 04:07:47;;;;;;;;;;;;;;;23.70;52.37;101773.91;7285369;19;152492;-61
2022/07/21 04:10:15;;;;;;;;;;;;;;;23.60;51.75;101774.06;7284562;19;153619;-61
2022/07/21 04:12:41;;;;;;;;;;;;;;;23.62;52.23;101777.44;7285252;19;152050;-61
2022/07/21 04:15:09;;;;;;;;;;;;;;;23.59;52.08;101775.22;7284871;19;153760;-60
2022/07/21 04:17:37;;;;;;;;;;;;;;;23.55;51.95;101780.66;7284455;19;153463;-61
2022/07/21 04:20:04;;;;;;;;;;;;;;;23.51;52.33;101775.94;7280031;19;151596;-60
2022/07/21 04:22:31;;;;;;;;;;;;;;;23.59;52.03;101784.53;7283708;19;153157;-60
2022/07/21 04:24:59;;;;;;;;;;;;;;;23.49;52.03;101781.88;7291723;19;152200;-59
2022/07/21 04:27:26;;;;;;;;;;;;;;;23.50;52.40;101783.56;7285002;19;153185;-61
2022/07/21 04:29:53;;;;;;;;;;;;;;;23.54;52.65;101787.44;7283752;19;152987;-59
2022/07/21 04:32:20;;;;;;;;;;;;;;;23.50;52.29;101786.38;7284967;19;152389;-61
2022/07/21 04:34:47;;;;;;;;;;;;;;;23.54;51.85;101789.41;7281488;19;152450;-61
2022/07/21 04:37:14;;;;;;;;;;;;;;;23.48;52.23;101789.50;7283267;19;152210;-60
2022/07/21 04:39:40;;;;;;;;;;;;;;;23.45;52.40;101792.94;7285687;19;152017;-60
2022/07/21 04:42:07;;;;;;;;;;;;;;;23.44;52.66;101782.78;7282073;19;154366;-61
2022/07/21 04:44:34;;;;;;;;;;;;;;;23.46;52.14;101791.78;7291721;19;153733;-60
2022/07/21 04:47:01;;;;;;;;;;;;;;;23.50;52.28;101792.00;7285069;19;152597;-61
2022/07/21 04:49:28;;;;;;;;;;;;;;;23.44;52.15;101794.06;7279779;19;154071;-60
2022/07/21 04:51:54;;;;;;;;;;;;;;;23.41;52.18;101799.47;7283912;19;152315;-61
2022/07/21 04:54:29;;;;;;;;;;;;;;;23.38;52.50;101806.56;7274793;19;152973;-60
2022/07/21 04:56:56;;;;;;;;;;;;;;;23.36;52.64;101808.00;7283226;19;153339;-61
2022/07/21 04:59:23;;;;;;;;;;;;;;;23.31;52.40;101808.09;7284350;19;152448;-62
2022/07/21 05:01:50;;;;;;;;;;;;;;;23.35;52.47;101801.53;7278740;19;153866;-60
2022/07/21 05:04:16;;;;;;;;;;;;;;;23.38;52.39;101802.91;7280271;19;153836;-61
2022/07/21 05:06:43;;;;;;;;;;;;;;;23.35;52.58;101810.00;7291466;19;152418;-61
2022/07/21 05:09:10;;;;;;;;;;;;;;;23.37;52.27;101812.50;7282915;19;153502;-61
2022/07/21 05:11:37;;;;;;;;;;;;;;;23.35;52.74;101812.81;7283147;19;152305;-61
2022/07/21 05:14:04;;;;;;;;;;;;;;;23.41;52.75;101819.22;7284311;19;152239;-60
2022/07/21 05:16:40;;;;;;;;;;;;;;;23.42;52.89;101818.06;7280726;19;154354;-60
2022/07/21 05:19:07;;;;;;;;;;;;;;;23.49;52.26;101813.75;7281048;19;152424;-60
2022/07/21 05:21:33;;;;;;;;;;;;;;;23.36;52.72;101817.31;7278060;19;153057;-59
2022/07/21 05:24:00;;;;;;;;;;;;;;;23.37;52.76;101820.97;7282373;19;154113;-61
2022/07/21 05:26:27;;;;;;;;;;;;;;;23.27;52.68;101818.31;7282443;19;153893;-60
2022/07/21 05:28:53;;;;;;;;;;;;;;;23.31;52.87;101828.66;7289726;19;153408;-59
2022/07/21 05:31:21;;;;;;;;;;;;;;;23.36;53.46;101831.41;7282952;19;152424;-61
2022/07/21 05:33:47;;;;;;;;;;;;;;;23.36;53.45;101830.56;7281184;19;152637;-61
2022/07/21 05:36:14;;;;;;;;;;;;;;;23.42;53.32;101844.31;7280746;19;152362;-59
2022/07/21 05:38:42;;;;;;;;;;;;;;;23.33;53.23;101834.84;7283106;19;152021;-60
2022/07/21 05:41:09;;;;;;;;;;;;;;;23.29;53.20;101838.59;7282680;19;152755;-61
2022/07/21 05:43:35;;;;;;;;;;;;;;;23.31;53.10;101831.50;7280319;19;153350;-61
2022/07/21 05:46:02;;;;;;;;;;;;;;;23.39;52.69;101836.44;7282264;19;152755;-60
2022/07/21 05:48:29;;;;;;;;;;;;;;;23.33;52.95;101840.50;7279455;19;153587;-61
2022/07/21 05:50:56;;;;;;;;;;;;;;;23.36;52.85;101847.50;7287725;19;153838;-61
2022/07/21 05:53:22;;;;;;;;;;;;;;;23.29;53.11;101842.25;7282775;19;152725;-61
2022/07/21 05:55:49;;;;;;;;;;;;;;;23.26;53.31;101848.47;7276470;19;154058;-61
2022/07/21 05:58:18;;;;;;;;;;;;;;;23.32;53.19;101844.44;7283575;19;152220;-60
2022/07/21 06:01:07;;;;;;;;;;;;;;;23.32;53.07;101852.91;7281870;19;153427;-61
2022/07/21 06:03:32;;;;;;;;;;;;;;;23.27;53.59;101849.31;7275559;19;153997;-61
2022/07/21 06:05:58;;;;;;;;;;;;;;;23.31;53.24;101850.38;7280597;19;152225;-60
2022/07/21 06:08:25;;;;;;;;;;;;;;;23.27;53.39;101853.00;7281163;19;154273;-60
2022/07/21 06:10:52;;;;;;;;;;;;;;;23.28;53.67;101857.50;7280524;19;152904;-61
2022/07/21 06:13:18;;;;;;;;;;;;;;;23.26;53.57;101856.13;7290655;19;151992;-61
2022/07/21 06:15:45;;;;;;;;;;;;;;;23.29;53.40;101858.34;7282569;19;154396;-60
2022/07/21 06:18:12;;;;;;;;;;;;;;;23.24;53.85;101861.22;7284637;19;152110;-61
2022/07/21 06:20:39;;;;;;;;;;;;;;;23.31;53.53;101865.34;7278208;19;153110;-61
2022/07/21 06:23:06;;;;;;;;;;;;;;;23.37;53.68;101866.09;7283123;19;154674;-61
2022/07/21 06:25:33;;;;;;;;;;;;;;;23.51;52.62;101860.56;7283681;19;153022;-61
2022/07/21 06:27:59;;;;;;;;;;;;;;;23.58;52.67;101872.28;7282899;19;153147;-62
2022/07/21 06:30:28;;;;;;;;;;;;;;;23.61;52.81;101875.34;7280542;19;152616;-60
2022/07/21 06:32:54;;;;;;;;;;;;;;;23.65;52.76;101864.28;7290408;19;152361;-60
2022/07/21 06:35:21;;;;;;;;;;;;;;;23.71;52.64;101855.41;7278907;19;153635;-62
2022/07/21 06:37:48;;;;;;;;;;;;;;;23.79;52.91;101857.53;7283617;19;152381;-61
2022/07/21 06:40:24;;;;;;;;;;;;;;;23.82;52.90;101862.56;7282086;19;153480;-61
2022/07/21 06:42:52;;;;;;;;;;;;;;;23.88;52.76;101863.31;7280108;19;153255;-61
2022/07/21 06:45:39;;;;;;;;;;;;;;;23.91;52.45;101862.69;7281481;19;152633;-61
2022/07/21 06:48:07;;;;;;;;;;;;;;;23.96;52.75;101868.25;7282851;19;153506;-61
2022/07/21 06:50:34;;;;;;;;;;;;;;;24.03;52.98;101871.50;7274785;19;154822;-61
2022/07/21 06:53:02;;;;;;;;;;;;;;;24.06;52.47;101873.72;7282845;19;152903;-61
2022/07/21 06:55:29;;;;;;;;;;;;;;;24.08;52.17;101877.06;7288293;19;152634;-61
2022/07/21 06:57:58;;;;;;;;;;;;;;;24.09;52.30;101886.38;7280493;19;151705;-61
2022/07/21 07:00:29;;;;;;;;;;;;;;;24.11;52.44;101889.72;7280761;19;153434;-61
2022/07/21 07:02:56;;;;;;;;;;;;;;;24.07;51.90;101894.31;7278247;19;153263;-61
2022/07/21 07:05:23;;;;;;;;;;;;;;;23.99;52.04;101900.66;7277644;19;152023;-61
2022/07/21 07:07:49;;;;;;;;;;;;;;;23.92;51.84;101893.44;7281143;19;152791;-62
2022/07/21 07:10:25;;;;;;;;;;;;;;;23.89;52.08;101901.69;7278508;19;153286;-61
2022/07/21 07:12:54;;;;;;;;;;;;;;;23.92;51.88;101895.44;7280878;19;152828;-61
2022/07/21 07:15:41;;;;;;;;;;;;;;;23.85;52.19;101901.44;7281449;19;154107;-62
2022/07/21 07:18:08;;;;;;;;;;;;;;;23.78;52.41;101906.66;7289912;19;152027;-61
2022/07/21 07:20:46;;;;;;;;;;;;;;;23.74;52.47;101899.97;7284619;19;154742;-62
2022/07/21 07:23:13;;;;;;;;;;;;;;;23.77;52.31;101912.59;7284555;19;154164;-62
2022/07/21 07:25:44;;;;;;;;;;;;;;;23.73;52.34;101911.53;7286400;19;152281;-61
2022/07/21 07:28:11;;;;;;;;;;;;;;;23.73;53.05;101909.56;7288286;19;152848;-61
2022/07/21 07:30:38;;;;;;;;;;;;;;;23.75;52.57;101910.09;7287658;19;153366;-61
2022/07/21 07:33:05;;;;;;;;;;;;;;;23.76;52.72;101908.09;7288273;19;152214;-61
2022/07/21 07:35:32;;;;;;;;;;;;;;;23.78;52.62;101906.66;7284345;19;153230;-62
2022/07/21 07:37:59;;;;;;;;;;;;;;;23.80;53.31;101910.00;7287645;19;153316;-62
2022/07/21 07:40:33;;;;;;;;;;;;;;;23.89;52.87;101915.81;7292899;19;152777;-61
2022/07/21 07:43:00;;;;;;;;;;;;;;;23.94;52.25;101915.69;7283002;19;154170;-62
2022/07/21 07:45:43;;;;;;;;;;;;;;;23.91;52.15;101924.78;7287382;19;151872;-61
2022/07/21 07:48:11;;;;;;;;;;;;;;;23.93;51.92;101923.34;7288461;19;153353;-60
2022/07/21 07:50:38;;;;;;;;;;;;;;;24.02;52.15;101923.50;7282622;19;153378;-62
2022/07/21 07:53:04;;;;;;;;;;;;;;;24.04;51.97;101928.81;7287480;19;152433;-60
2022/07/21 07:55:31;;;;;;;;;;;;;;;24.07;51.98;101929.06;7286654;19;153336;-62
2022/07/21 07:57:58;;;;;;;;;;;;;;;24.14;51.49;101929.47;7286575;19;152186;-60
2022/07/21 08:00:33;;;;;;;;;;;;;;;24.12;51.70;101925.31;7285961;19;151913;-60
2022/07/21 08:03:20;;;;;;;;;;;;;;;24.14;51.77;101928.63;7291127;19;156071;-62
2022/07/21 08:05:47;;;;;;;;;;;;;;;24.20;51.68;101925.47;7285926;19;152360;-61
2022/07/21 08:08:14;;;;;;;;;;;;;;;24.20;51.60;101925.47;7286717;19;152049;-62
2022/07/21 08:10:41;;;;;;;;;;;;;;;24.20;51.67;101919.81;7285592;19;153172;-61
2022/07/21 08:13:14;;;;;;;;;;;;;;;24.23;51.26;101918.34;7286679;19;151671;-61
2022/07/21 08:15:41;;;;;;;;;;;;;;;24.23;51.33;101919.19;7286978;19;152653;-62
2022/07/21 08:18:09;;;;;;;;;;;;;;;24.27;51.59;101923.06;7286139;19;154337;-62
2022/07/21 08:20:36;;;;;;;;;;;;;;;24.29;51.63;101923.59;7282890;19;152961;-62
2022/07/21 08:23:04;;;;;;;;;;;;;;;24.30;51.01;101921.63;7285134;19;152728;-62
2022/07/21 08:25:30;;;;;;;;;;;;;;;24.34;50.95;101920.69;7292538;19;154502;-61
2022/07/21 08:27:57;;;;;;;;;;;;;;;24.37;51.04;101924.84;7286817;19;153182;-61
2022/07/21 08:30:33;;;;;;;;;;;;;;;24.34;50.92;101931.13;7284147;19;153233;-61
2022/07/21 08:33:00;;;;;;;;;;;;;;;24.39;51.10;101927.38;7285570;19;152095;-62
2022/07/21 08:35:27;;;;;;;;;;;;;;;24.38;50.81;101925.69;7282462;19;154428;-62
2022/07/21 08:37:56;;;;;;;;;;;;;;;24.40;51.36;101931.84;7285614;19;153261;-62
2022/07/21 08:40:31;;;;;;;;;;;;;;;24.43;51.04;101931.25;7286233;19;152179;-61
2022/07/21 08:42:59;;;;;;;;;;;;;;;24.41;51.06;101925.06;7283304;19;153473;-61
2022/07/21 08:45:27;;;;;;;;;;;;;;;24.42;51.21;101935.22;7292198;19;153818;-61
2022/07/21 08:47:55;;;;;;;;;;;;;;;24.40;50.98;101926.22;7286614;19;151911;-62
2022/07/21 08:50:33;;;;;;;;;;;;;;;24.44;50.85;101930.94;7281197;19;153202;-62
2022/07/21 08:53:00;;;;;;;;;;;;;;;24.48;50.89;101928.34;7286569;19;152184;-62
2022/07/21 08:55:34;;;;;;;;;;;;;;;24.50;50.91;101935.34;7285948;19;153178;-62
2022/07/21 08:58:01;;;;;;;;;;;;;;;24.55;50.34;101938.06;7285271;19;152665;-61
2022/07/21 09:00:34;;;;;;;;;;;;;;;24.56;50.81;101944.56;7286045;19;152004;-62
2022/07/21 09:03:13;;;;;;;;;;;;;;;24.58;50.85;101951.56;7283759;19;153286;-61
2022/07/21 09:05:40;;;;;;;;;;;;;;;24.57;50.79;101947.09;7280657;19;153688;-62
2022/07/21 09:08:07;;;;;;;;;;;;;;;24.67;50.59;101951.69;7293860;19;153335;-62
2022/07/21 09:10:34;;;;;;;;;;;;;;;24.66;50.52;101948.03;7283701;19;153977;-62
2022/07/21 09:13:02;;;;;;;;;;;;;;;24.66;50.50;101944.38;7286362;19;153675;-61
2022/07/21 09:15:31;;;;;;;;;;;;;;;24.68;50.36;101948.56;7284343;19;152555;-62
2022/07/21 09:18:03;;;;;;;;;;;;;;;24.72;50.50;101946.78;7284521;19;153766;-61
2022/07/21 09:20:39;;;;;;;;;;;;;;;24.65;50.63;101943.53;7281284;19;152530;-62
2022/07/21 09:23:07;;;;;;;;;;;;;;;24.71;50.52;101944.28;7283581;19;153529;-62
2022/07/21 09:25:35;;;;;;;;;;;;;;;24.75;50.46;101946.16;7283509;19;153134;-60
2022/07/21 09:28:08;;;;;;;;;;;;;;;24.70;50.78;101951.91;7284877;19;152751;-61
2022/07/21 09:30:51;;;;;;;;;;;;;;;24.72;50.78;101951.59;7290723;19;153481;-62
2022/07/21 09:33:19;;;;;;;;;;;;;;;24.72;50.52;101948.75;7262778;19;155215;-61
2022/07/21 09:36:15;;;;;;;;;;;;;;;24.74;50.55;101947.31;7267153;19;152717;-61
2022/07/21 09:38:48;;;;;;;;;;;;;;;24.80;50.28;101948.06;7278003;19;152835;-61
2022/07/21 09:41:20;;;;;;;;;;;;;;;24.84;50.31;101951.94;7281949;19;151850;-62
2022/07/21 09:43:48;;;;;;;;;;;;;;;24.84;50.22;101951.09;7280034;19;152098;-61
2022/07/21 09:46:19;;;;;;;;;;;;;;;24.82;50.05;101957.03;7281016;19;154656;-62
2022/07/21 09:48:47;;;;;;;;;;;;;;;24.85;50.19;101956.41;7281085;19;153462;-62
2022/07/21 09:51:37;;;;;;;;;;;;;;;24.93;50.11;101961.38;7280990;19;156328;-62
2022/07/21 09:54:05;;;;;;;;;;;;;;;24.90;50.15;101963.97;7288602;19;153814;-62
2022/07/21 09:56:36;;;;;;;;;;;;;;;24.92;50.12;101965.34;7281820;19;152913;-62
2022/07/21 09:59:04;;;;;;;;;;;;;;;25.02;49.78;101969.97;7279791;19;152996;-62
2022/07/21 10:01:31;;;;;;;;;;;;;;;25.00;50.16;101964.63;7283065;19;152806;-62
2022/07/21 10:03:59;;;;;;;;;;;;;;;24.98;50.52;101958.47;7276305;19;154499;-62
2022/07/21 10:06:27;;;;;;;;;;;;;;;24.97;50.17;101959.59;7281012;19;153231;-62
2022/07/21 10:08:55;;;;;;;;;;;;;;;24.99;50.03;101964.91;7282868;19;151979;-62
2022/07/21 10:11:26;;;;;;;;;;;;;;;25.03;49.98;101951.84;7282102;19;152495;-62
2022/07/21 10:13:56;;;;;;;;;;;;;;;25.04;49.78;101953.50;7280009;19;152841;-62
2022/07/21 10:16:23;;;;;;;;;;;;;;;25.04;49.87;101960.00;7290031;19;152446;-61
2022/07/21 10:18:49;;;;;;;;;;;;;;;25.10;49.42;101955.94;7279011;19;153767;-61
2022/07/21 10:21:22;;;;;;;;;;;;;;;25.05;49.53;101956.03;7271825;19;156655;-61
2022/07/21 10:23:51;;;;;;;;;;;;;;;25.12;49.59;101956.44;7278220;19;153696;-61
2022/07/21 10:26:18;;;;;;;;;;;;;;;25.12;49.57;101953.59;7281159;19;153815;-61
2022/07/21 10:28:45;;;;;;;;;;;;;;;25.14;49.56;101956.97;7280986;19;153153;-62
2022/07/21 10:31:22;;;;;;;;;;;;;;;25.15;49.43;101952.16;7275922;19;152554;-62
2022/07/21 10:33:48;;;;;;;;;;;;;;;25.16;49.48;101953.84;7274346;19;152824;-62
2022/07/21 10:36:28;;;;;;;;;;;;;;;25.23;49.43;101948.56;7280972;19;151988;-62
2022/07/21 10:39:10;;;;;;;;;;;;;;;25.26;49.33;101947.94;7287564;19;152557;-61
2022/07/21 10:41:38;;;;;;;;;;;;;;;25.27;49.33;101940.28;7280634;19;154227;-61
2022/07/21 10:44:23;;;;;;;;;;;;;;;25.30;49.46;101945.34;7276848;19;153509;-62
2022/07/21 10:47:09;;;;;;;;;;;;;;;25.31;49.46;101945.00;7279904;19;153922;-62
2022/07/21 10:49:56;;;;;;;;;;;;;;;25.33;49.35;101947.53;7278544;19;152284;-62
2022/07/21 10:52:39;;;;;;;;;;;;;;;25.35;49.38;101950.88;7282066;19;153855;-62
2022/07/21 10:55:28;;;;;;;;;;;;;;;25.35;48.91;101953.72;7285343;19;153444;-62
2022/07/21 10:58:21;;;;;;;;;;;;;;;25.37;48.76;101951.38;7287543;19;152145;-62
2022/07/21 11:00:50;;;;;;;;;;;;;;;25.41;48.45;101952.41;7293285;19;152842;-62
2022/07/21 11:03:25;;;;;;;;;;;;;;;25.41;48.32;101949.59;7286179;19;151995;-62
2022/07/21 11:06:24;;;;;;;;;;;;;;;25.39;48.58;101949.09;7284764;19;153246;-62
2022/07/21 11:09:04;;;;;;;;;;;;;;;25.41;48.54;101953.25;7282882;19;153327;-62
2022/07/21 11:11:32;;;;;;;;;;;;;;;25.38;48.76;101944.56;7284074;19;152902;-62
2022/07/21 11:14:10;;;;;;;;;;;;;;;25.39;48.69;101944.28;7287376;19;153729;-62
2022/07/21 11:16:43;;;;;;;;;;;;;;;25.43;48.47;101955.78;7285211;19;153831;-61
2022/07/21 11:19:29;;;;;;;;;;;;;;;25.41;48.76;101952.41;7282958;19;153138;-62
2022/07/21 11:21:57;;;;;;;;;;;;;;;25.46;48.37;101957.97;7285066;19;152143;-61
2022/07/21 11:24:24;;;;;;;;;;;;;;;25.43;48.25;101947.28;7289819;19;153582;-62
2022/07/21 11:26:56;;;;;;;;;;;;;;;25.43;48.05;101948.13;7286522;19;153263;-62
2022/07/21 11:29:23;;;;;;;;;;;;;;;25.45;47.99;101951.47;7284049;19;154057;-62
2022/07/21 11:31:50;;;;;;;;;;;;;;;25.46;48.49;101952.31;7281701;19;152759;-61
2022/07/21 11:34:17;;;;;;;;;;;;;;;25.47;48.37;101954.00;7279215;19;152119;-61
2022/07/21 11:36:44;;;;;;;;;;;;;;;25.50;48.28;101953.34;7284371;19;154021;-62
2022/07/21 11:39:13;;;;;;;;;;;;;;;25.51;48.18;101955.03;7285247;19;152495;-62
2022/07/21 11:41:41;;;;;;;;;;;;;;;25.48;48.16;101950.00;7285615;19;153238;-62
2022/07/21 11:44:09;;;;;;;;;;;;;;;25.49;48.53;101951.66;7281849;19;153718;-61
2022/07/21 11:46:46;;;;;;;;;;;;;;;25.52;48.05;101956.72;7292718;19;152241;-62
2022/07/21 11:49:13;;;;;;;;;;;;;;;25.51;48.21;101949.38;7281453;19;154067;-62
2022/07/21 11:51:58;;;;;;;;;;;;;;;25.50;48.19;101947.69;7284684;19;152694;-62
2022/07/21 11:54:27;;;;;;;;;;;;;;;25.51;48.56;101938.88;7284654;19;152066;-62
2022/07/21 11:56:55;;;;;;;;;;;;;;;25.51;48.67;101941.72;7284026;19;152143;-61
2022/07/21 11:59:22;;;;;;;;;;;;;;;25.54;48.40;101941.09;7285118;19;152857;-61
2022/07/21 12:01:54;;;;;;;;;;;;;;;25.54;48.43;101943.09;7283792;19;152591;-61
2022/07/21 12:04:49;;;;;;;;;;;;;;;25.56;48.60;101943.63;7277358;19;154462;-62
2022/07/21 12:07:16;;;;;;;;;;;;;;;25.59;48.16;101942.97;7283612;19;152099;-61
2022/07/21 12:09:43;;;;;;;;;;;;;;;25.58;48.34;101949.78;7291103;19;153200;-62
2022/07/21 12:12:32;;;;;;;;;;;;;;;25.54;48.17;101941.09;7284779;19;152083;-61
2022/07/21 12:15:14;;;;;;;;;;;;;;;25.56;48.49;101935.97;7283894;19;151940;-62
2022/07/21 12:17:44;;;;;;;;;;;;;;;25.56;48.42;101935.97;7283105;19;152256;-62
2022/07/21 12:20:12;;;;;;;;;;;;;;;25.58;47.91;101941.28;7281466;19;152373;-61
2022/07/21 12:22:46;;;;;;;;;;;;;;;25.60;47.57;101941.81;7283957;19;153523;-62
2022/07/21 12:25:14;;;;;;;;;;;;;;;25.61;47.53;101938.69;7279878;19;152984;-61
2022/07/21 12:27:42;;;;;;;;;;;;;;;25.59;47.91;101931.66;7283720;19;151985;-62
2022/07/21 12:30:10;;;;;;;;;;;;;;;25.62;47.86;101939.53;7283814;19;153526;-62
2022/07/21 12:32:40;;;;;;;;;;;;;;;25.59;48.40;101934.47;7288259;19;152934;-62
2022/07/21 12:35:16;;;;;;;;;;;;;;;25.64;47.60;101940.88;7276955;19;153774;-61
2022/07/21 12:37:55;;;;;;;;;;;;;;;25.63;47.74;101941.19;7283706;19;153459;-63
2022/07/21 12:40:32;;;;;;;;;;;;;;;25.65;47.51;101931.22;7284092;19;152371;-62
2022/07/21 12:43:13;;;;;;;;;;;;;;;25.67;47.64;101926.06;7284755;19;152532;-62